createdAt,value
2018-07-30T00:04:17.818Z,26.38
2018-07-30T00:06:55.163Z,26.38
2018-07-30T00:09:32.466Z,26.34
2018-07-30T00:12:06.517Z,26.43
2018-07-30T00:17:32.942Z,26.54
2018-07-30T00:20:11.320Z,26.59
2018-07-30T00:22:53.370Z,26.51
2018-07-30T00:25:33.710Z,26.53
2018-07-30T00:28:19.910Z,26.54
2018-07-30T00:30:59.758Z,26.29
2018-07-30T00:39:15.037Z,26.04
2018-07-30T00:41:45.094Z,26.49
2018-07-30T00:44:15.065Z,26.32
2018-07-30T00:46:44.928Z,26.15
2018-07-30T00:49:14.840Z,26.20
2018-07-30T00:51:44.720Z,26.31
2018-07-30T00:54:14.452Z,26.37
2018-07-30T00:56:44.555Z,26.41
2018-07-30T00:59:14.369Z,26.47
2018-07-30T01:01:44.230Z,26.36
2018-07-30T01:04:14.304Z,26.14
2018-07-30T01:06:44.169Z,26.07
2018-07-30T01:09:14.308Z,26.23
2018-07-30T01:11:44.547Z,26.07
2018-07-30T01:14:15.761Z,25.98
2018-07-30T01:16:46.488Z,25.76
2018-07-30T01:19:16.547Z,25.81
2018-07-30T01:21:46.639Z,26.07
2018-07-30T01:24:16.552Z,26.09
2018-07-30T01:26:46.681Z,26.19
2018-07-30T01:29:16.682Z,26.30
2018-07-30T01:34:24.821Z,26.43
2018-07-30T01:36:56.781Z,26.13
2018-07-30T01:39:28.935Z,26.06
2018-07-30T01:41:59.832Z,25.91
2018-07-30T01:44:31.091Z,25.53
2018-07-30T01:47:02.940Z,25.69
2018-07-30T01:49:35.899Z,25.49
2018-07-30T01:52:06.638Z,25.21
2018-07-30T01:54:37.999Z,25.39
2018-07-30T01:57:10.455Z,25.44
2018-07-30T01:59:41.521Z,25.24
2018-07-30T02:02:14.940Z,25.26
2018-07-30T02:04:47.053Z,25.38
2018-07-30T02:07:19.285Z,25.57
2018-07-30T02:09:50.102Z,25.67
2018-07-30T02:12:22.826Z,25.71
2018-07-30T02:14:52.902Z,25.78
2018-07-30T02:17:28.758Z,25.77
2018-07-30T02:20:01.026Z,25.78
2018-07-30T02:22:31.381Z,25.85
2018-07-30T02:25:01.929Z,25.78
2018-07-30T02:27:33.859Z,25.55
2018-07-30T02:30:06.759Z,25.39
2018-07-30T02:32:40.193Z,25.59
2018-07-30T02:35:12.034Z,25.50
2018-07-30T02:37:46.117Z,25.40
2018-07-30T02:40:17.272Z,25.29
2018-07-30T02:42:48.118Z,25.11
2018-07-30T02:45:19.352Z,24.98
2018-07-30T02:47:50.294Z,24.79
2018-07-30T02:53:00.458Z,24.87
2018-07-30T02:55:30.445Z,25.00
2018-07-30T02:58:05.811Z,25.06
2018-07-30T03:00:37.532Z,24.89
2018-07-30T03:03:11.633Z,24.51
2018-07-30T03:05:44.032Z,24.69
2018-07-30T03:08:15.864Z,24.91
2018-07-30T03:10:47.544Z,24.80
2018-07-30T03:13:19.086Z,24.48
2018-07-30T03:15:49.888Z,24.69
2018-07-30T03:18:21.722Z,24.71
2018-07-30T03:20:53.416Z,24.80
2018-07-30T03:26:10.588Z,25.16
2018-07-30T03:28:46.167Z,24.95
2018-07-30T03:31:32.591Z,24.92
2018-07-30T03:34:14.425Z,24.84
2018-07-30T03:36:53.537Z,25.04
2018-07-30T03:39:29.058Z,25.12
2018-07-30T03:42:10.818Z,25.13
2018-07-30T03:44:49.163Z,25.21
2018-07-30T03:47:28.763Z,24.94
2018-07-30T03:52:49.792Z,24.32
2018-07-30T03:55:27.504Z,24.59
2018-07-30T04:00:46.013Z,24.53
2018-07-30T04:03:31.286Z,24.50
2018-07-30T04:06:06.540Z,24.37
2018-07-30T04:08:41.043Z,24.42
2018-07-30T04:11:15.619Z,24.40
2018-07-30T04:13:54.570Z,24.16
2018-07-30T04:16:37.456Z,24.77
2018-07-30T04:19:10.410Z,24.61
2018-07-30T04:21:49.964Z,24.33
2018-07-30T04:24:24.338Z,24.39
2018-07-30T04:27:05.318Z,24.67
2018-07-30T04:29:51.820Z,24.87
2018-07-30T04:32:27.193Z,25.60
2018-07-30T04:35:02.287Z,26.05
2018-07-30T04:37:42.147Z,26.15
2018-07-30T04:40:29.605Z,25.89
2018-07-30T04:43:11.018Z,26.27
2018-07-30T04:45:45.331Z,26.40
2018-07-30T04:48:29.415Z,26.29
2018-07-30T04:51:05.313Z,26.29
2018-07-30T04:53:46.635Z,26.76
2018-07-30T04:56:27.116Z,26.94
2018-07-30T04:59:12.085Z,26.94
2018-07-30T05:01:51.262Z,26.59
2018-07-30T05:04:29.620Z,26.75
2018-07-30T05:07:06.001Z,27.41
2018-07-30T05:09:48.603Z,27.76
2018-07-30T05:12:34.275Z,27.81
2018-07-30T05:17:55.966Z,27.45
2018-07-30T05:23:14.706Z,27.68
2018-07-30T05:25:50.423Z,27.93
2018-07-30T05:28:25.633Z,27.75
2018-07-30T05:31:01.199Z,27.54
2018-07-30T05:33:38.015Z,27.65
2018-07-30T05:36:19.735Z,27.84
2018-07-30T05:38:59.449Z,28.16
2018-07-30T05:41:35.527Z,28.45
2018-07-30T05:44:13.589Z,28.84
2018-07-30T05:46:53.113Z,29.26
2018-07-30T05:49:35.765Z,29.57
2018-07-30T05:52:14.829Z,29.85
2018-07-30T05:54:54.258Z,29.91
2018-07-30T05:57:31.987Z,30.04
2018-07-30T06:00:16.688Z,30.02
2018-07-30T06:02:53.613Z,30.22
2018-07-30T06:05:33.075Z,30.43
2018-07-30T06:08:18.468Z,30.34
2018-07-30T06:10:56.526Z,30.45
2018-07-30T06:13:34.931Z,30.50
2018-07-30T06:16:21.894Z,30.79
2018-07-30T06:18:58.879Z,30.98
2018-07-30T06:21:35.061Z,31.33
2018-07-30T06:24:09.775Z,31.27
2018-07-30T06:26:45.652Z,31.37
2018-07-30T06:29:25.877Z,31.29
2018-07-30T06:32:07.390Z,31.44
2018-07-30T06:34:45.805Z,31.55
2018-07-30T06:40:09.490Z,31.82
2018-07-30T06:42:43.721Z,32.13
2018-07-30T06:45:23.309Z,32.21
2018-07-30T06:47:59.844Z,31.70
2018-07-30T06:50:36.402Z,32.06
2018-07-30T06:53:21.669Z,32.24
2018-07-30T06:55:58.853Z,32.34
2018-07-30T06:58:35.463Z,32.14
2018-07-30T07:03:57.076Z,32.41
2018-07-30T07:06:34.563Z,32.61
2018-07-30T07:09:18.611Z,33.00
2018-07-30T07:12:03.864Z,33.08
2018-07-30T07:14:41.001Z,33.11
2018-07-30T07:17:25.240Z,33.50
2018-07-30T07:20:04.057Z,33.26
2018-07-30T07:22:38.092Z,33.43
2018-07-30T07:25:16.457Z,33.45
2018-07-30T07:27:55.529Z,33.21
2018-07-30T07:30:34.684Z,33.38
2018-07-30T07:33:17.225Z,33.33
2018-07-30T07:35:57.699Z,33.16
2018-07-30T07:38:44.437Z,32.93
2018-07-30T07:41:28.930Z,32.81
2018-07-30T07:44:07.145Z,32.83
2018-07-30T07:46:46.608Z,32.61
2018-07-30T07:49:22.996Z,32.76
2018-07-30T07:52:08.189Z,33.01
2018-07-30T07:54:48.437Z,33.16
2018-07-30T08:00:13.042Z,33.82
2018-07-30T08:02:51.432Z,33.95
2018-07-30T08:05:29.427Z,34.13
2018-07-30T08:08:08.573Z,34.21
2018-07-30T08:10:45.724Z,34.35
2018-07-30T08:13:22.360Z,34.42
2018-07-30T08:16:03.347Z,34.22
2018-07-30T08:18:42.867Z,33.73
2018-07-30T08:21:26.797Z,33.94
2018-07-30T08:24:06.553Z,34.08
2018-07-30T08:26:46.428Z,34.28
2018-07-30T08:29:24.026Z,34.68
2018-07-30T08:32:06.221Z,34.68
2018-07-30T08:34:47.597Z,34.91
2018-07-30T08:37:25.388Z,34.94
2018-07-30T08:40:03.516Z,34.85
2018-07-30T08:42:44.681Z,34.70
2018-07-30T08:45:21.905Z,34.60
2018-07-30T08:48:04.873Z,34.41
2018-07-30T08:50:44.836Z,34.41
2018-07-30T08:53:18.911Z,34.42
2018-07-30T08:55:58.509Z,34.37
2018-07-30T08:58:37.536Z,34.29
2018-07-30T09:01:17.578Z,34.05
2018-07-30T09:03:55.872Z,34.01
2018-07-30T09:06:34.558Z,34.01
2018-07-30T09:09:16.509Z,34.40
2018-07-30T09:11:56.708Z,34.91
2018-07-30T09:14:42.667Z,35.42
2018-07-30T09:17:29.777Z,35.46
2018-07-30T09:20:08.056Z,35.72
2018-07-30T09:25:44.287Z,35.36
2018-07-30T09:28:27.728Z,35.66
2018-07-30T09:31:08.917Z,36.33
2018-07-30T09:33:55.241Z,36.33
2018-07-30T09:36:40.771Z,36.36
2018-07-30T09:39:24.377Z,36.27
2018-07-30T09:44:51.254Z,36.40
2018-07-30T09:47:32.455Z,35.97
2018-07-30T09:50:14.261Z,35.55
2018-07-30T09:53:00.237Z,35.21
2018-07-30T09:55:40.147Z,35.01
2018-07-30T09:58:28.364Z,34.95
2018-07-30T10:01:15.937Z,35.50
2018-07-30T10:04:00.581Z,35.20
2018-07-30T10:06:43.303Z,34.99
2018-07-30T10:09:28.742Z,35.08
2018-07-30T10:14:58.449Z,34.97
2018-07-30T10:17:38.627Z,34.62
2018-07-30T10:20:20.511Z,34.42
2018-07-30T10:23:06.816Z,34.32
2018-07-30T10:25:47.759Z,34.37
2018-07-30T10:28:32.377Z,34.69
2018-07-30T10:31:11.573Z,35.34
2018-07-30T10:33:48.865Z,35.73
2018-07-30T10:36:27.083Z,35.92
2018-07-30T10:39:12.550Z,35.55
2018-07-30T10:41:50.918Z,35.32
2018-07-30T10:44:31.865Z,34.96
2018-07-30T10:47:14.595Z,35.06
2018-07-30T10:49:54.460Z,35.10
2018-07-30T10:52:32.753Z,34.74
2018-07-30T10:55:14.662Z,34.53
2018-07-30T10:57:54.622Z,34.43
2018-07-30T11:06:10.663Z,35.28
2018-07-30T11:08:52.838Z,34.78
2018-07-30T11:11:36.988Z,34.78
2018-07-30T11:14:18.928Z,34.49
2018-07-30T11:17:01.208Z,34.42
2018-07-30T11:19:41.643Z,34.23
2018-07-30T11:22:28.332Z,33.69
2018-07-30T11:25:07.159Z,33.33
2018-07-30T11:27:44.710Z,33.30
2018-07-30T11:30:27.482Z,33.42
2018-07-30T11:33:10.893Z,33.54
2018-07-30T11:35:52.651Z,33.43
2018-07-30T11:38:34.272Z,33.14
2018-07-30T11:41:14.904Z,33.13
2018-07-30T11:43:57.372Z,33.26
2018-07-30T11:46:34.795Z,33.53
2018-07-30T11:49:12.693Z,33.92
2018-07-30T11:51:49.882Z,34.16
2018-07-30T11:54:30.356Z,34.70
2018-07-30T11:57:07.964Z,35.24
2018-07-30T11:59:51.991Z,35.45
2018-07-30T12:05:18.886Z,35.63
2018-07-30T12:07:57.704Z,36.30
2018-07-30T12:10:32.937Z,36.35
2018-07-30T12:13:17.294Z,36.23
2018-07-30T12:15:59.355Z,36.64
2018-07-30T12:18:39.967Z,36.91
2018-07-30T12:21:20.109Z,36.83
2018-07-30T12:23:57.609Z,36.44
2018-07-30T12:26:38.939Z,36.19
2018-07-30T12:29:22.355Z,36.45
2018-07-30T12:32:03.153Z,36.58
2018-07-30T12:34:39.089Z,37.15
2018-07-30T12:42:48.484Z,37.15
2018-07-30T12:45:32.511Z,37.02
2018-07-30T12:48:16.395Z,36.62
2018-07-30T12:50:57.025Z,36.11
2018-07-30T12:56:19.704Z,35.70
2018-07-30T12:58:56.512Z,35.74
2018-07-30T13:01:36.711Z,35.08
2018-07-30T13:04:18.120Z,35.47
2018-07-30T13:06:57.846Z,35.25
2018-07-30T13:09:34.942Z,34.59
2018-07-30T13:12:14.889Z,34.26
2018-07-30T13:14:56.755Z,33.37
2018-07-30T13:17:35.993Z,33.13
2018-07-30T13:20:19.342Z,33.49
2018-07-30T13:22:59.733Z,34.30
2018-07-30T13:25:38.686Z,34.09
2018-07-30T13:28:15.070Z,34.75
2018-07-30T13:30:57.787Z,35.29
2018-07-30T13:33:33.628Z,35.66
2018-07-30T13:36:08.011Z,35.76
2018-07-30T13:38:44.813Z,36.34
2018-07-30T13:41:26.590Z,36.34
2018-07-30T13:44:03.987Z,36.09
2018-07-30T13:46:43.717Z,35.86
2018-07-30T13:49:24.193Z,35.55
2018-07-30T13:52:03.858Z,35.35
2018-07-30T13:54:40.250Z,35.20
2018-07-30T13:57:16.711Z,35.05
2018-07-30T13:59:52.059Z,34.89
2018-07-30T14:02:29.703Z,34.66
2018-07-30T14:05:09.612Z,34.17
2018-07-30T14:07:48.790Z,34.11
2018-07-30T14:10:31.938Z,33.94
2018-07-30T14:13:11.741Z,33.72
2018-07-30T14:15:52.423Z,33.52
2018-07-30T14:18:35.744Z,33.28
2018-07-30T14:21:13.710Z,33.58
2018-07-30T14:23:56.268Z,33.48
2018-07-30T14:26:37.769Z,32.93
2018-07-30T14:29:21.616Z,32.27
2018-07-30T14:31:59.874Z,32.08
2018-07-30T14:34:42.854Z,31.86
2018-07-30T14:37:22.453Z,31.57
2018-07-30T14:40:16.347Z,31.74
2018-07-30T14:43:01.110Z,31.75
2018-07-30T14:45:41.174Z,31.54
2018-07-30T14:48:24.420Z,31.69
2018-07-30T14:51:05.400Z,31.49
2018-07-30T14:53:48.201Z,30.34
2018-07-30T14:56:30.202Z,29.67
2018-07-30T15:01:53.065Z,29.79
2018-07-30T15:04:39.199Z,29.16
2018-07-30T15:10:07.111Z,29.20
2018-07-30T15:12:50.729Z,29.52
2018-07-30T15:15:30.228Z,29.83
2018-07-30T15:18:09.137Z,29.85
2018-07-30T15:20:51.575Z,29.08
2018-07-30T15:23:36.580Z,29.22
2018-07-30T15:26:15.669Z,29.55
2018-07-30T15:28:58.970Z,29.44
2018-07-30T15:34:24.657Z,29.02
2018-07-30T15:37:04.714Z,29.17
2018-07-30T15:39:43.767Z,29.18
2018-07-30T15:42:21.353Z,29.14
2018-07-30T15:45:04.705Z,29.28
2018-07-30T15:47:42.607Z,29.56
2018-07-30T15:50:20.575Z,29.52
2018-07-30T15:53:00.992Z,29.48
2018-07-30T15:55:41.118Z,29.36
2018-07-30T15:58:26.157Z,29.46
2018-07-30T16:01:03.100Z,29.45
2018-07-30T16:03:42.567Z,29.71
2018-07-30T16:06:23.911Z,29.88
2018-07-30T16:09:06.750Z,30.09
2018-07-30T16:11:49.299Z,30.37
2018-07-30T16:14:29.313Z,30.51
2018-07-30T16:17:10.977Z,30.50
2018-07-30T16:19:50.139Z,30.38
2018-07-30T16:25:23.478Z,30.13
2018-07-30T16:28:05.476Z,30.06
2018-07-30T16:30:44.103Z,29.99
2018-07-30T16:33:25.060Z,30.01
2018-07-30T16:36:03.863Z,30.11
2018-07-30T16:38:42.583Z,30.14
2018-07-30T16:41:24.563Z,29.93
2018-07-30T16:44:03.133Z,29.96
2018-07-30T16:49:22.736Z,29.39
2018-07-30T16:52:00.767Z,29.63
2018-07-30T16:57:24.583Z,30.70
2018-07-30T17:00:04.079Z,31.06
2018-07-30T17:02:44.859Z,30.82
2018-07-30T17:05:31.744Z,31.16
2018-07-30T17:08:15.131Z,31.91
2018-07-30T17:10:51.649Z,32.52
2018-07-30T17:13:35.066Z,33.06
2018-07-30T17:16:18.269Z,33.54
2018-07-30T17:21:38.526Z,32.56
2018-07-30T17:24:21.951Z,31.39
2018-07-30T17:26:55.542Z,30.73
2018-07-30T17:29:41.214Z,30.45
2018-07-30T17:32:22.190Z,29.82
2018-07-30T17:35:07.180Z,30.05
2018-07-30T17:37:46.070Z,29.97
2018-07-30T17:40:25.304Z,29.95
2018-07-30T17:43:04.868Z,29.94
2018-07-30T17:45:39.918Z,29.74
2018-07-30T17:48:20.208Z,29.58
2018-07-30T17:50:57.155Z,29.80
2018-07-30T17:53:38.855Z,30.03
2018-07-30T18:01:59.768Z,29.76
2018-07-30T18:04:41.179Z,29.84
2018-07-30T18:07:16.033Z,29.28
2018-07-30T18:09:51.045Z,28.89
2018-07-30T18:12:28.102Z,28.56
2018-07-30T18:15:10.271Z,28.44
2018-07-30T18:17:55.943Z,28.41
2018-07-30T18:20:35.567Z,28.29
2018-07-30T18:23:16.466Z,28.21
2018-07-30T18:25:59.687Z,28.13
2018-07-30T18:28:45.080Z,28.14
2018-07-30T18:31:23.845Z,28.15
2018-07-30T18:34:03.517Z,28.05
2018-07-30T18:36:46.780Z,27.82
2018-07-30T18:39:24.149Z,27.55
2018-07-30T18:42:01.865Z,27.33
2018-07-30T18:44:42.721Z,27.17
2018-07-30T18:47:19.444Z,27.36
2018-07-30T18:49:59.330Z,27.67
2018-07-30T18:52:35.560Z,27.92
2018-07-30T18:57:59.863Z,27.69
2018-07-30T19:00:36.780Z,27.68
2018-07-30T19:03:10.897Z,27.46
2018-07-30T19:05:43.061Z,27.43
2018-07-30T19:08:25.276Z,27.22
2018-07-30T19:11:06.112Z,26.84
2018-07-30T19:13:48.037Z,26.79
2018-07-30T19:16:23.428Z,26.89
2018-07-30T19:19:09.422Z,26.99
2018-07-30T19:24:29.334Z,26.78
2018-07-30T19:27:10.674Z,26.64
2018-07-30T19:30:00.686Z,26.59
2018-07-30T19:32:39.011Z,26.41
2018-07-30T19:35:19.969Z,26.16
2018-07-30T19:37:56.773Z,26.01
2018-07-30T19:40:37.305Z,26.20
2018-07-30T19:43:17.945Z,26.45
2018-07-30T19:45:58.223Z,26.61
2018-07-30T19:48:42.291Z,26.54
2018-07-30T19:51:21.993Z,26.75
2018-07-30T19:53:59.408Z,26.75
2018-07-30T19:56:39.578Z,26.56
2018-07-30T19:59:19.099Z,26.23
2018-07-30T20:02:00.711Z,26.08
2018-07-30T20:04:36.686Z,26.03
2018-07-30T20:07:16.290Z,25.95
2018-07-30T20:12:42.751Z,26.15
2018-07-30T20:15:23.572Z,26.02
2018-07-30T20:17:59.605Z,25.85
2018-07-30T20:20:39.505Z,25.88
2018-07-30T20:23:18.767Z,25.79
2018-07-30T20:25:54.497Z,25.42
2018-07-30T20:28:38.047Z,25.48
2018-07-30T20:31:23.365Z,25.56
2018-07-30T20:34:03.368Z,25.91
2018-07-30T20:36:40.766Z,26.25
2018-07-30T20:39:22.337Z,26.22
2018-07-30T20:42:03.331Z,26.19
2018-07-30T20:44:48.836Z,25.81
2018-07-30T20:47:26.212Z,25.71
2018-07-30T20:50:04.332Z,25.44
2018-07-30T20:52:39.140Z,25.41
2018-07-30T20:58:27.619Z,24.98
2018-07-30T21:01:23.514Z,25.05
2018-07-30T21:04:16.062Z,25.33
2018-07-30T21:07:06.226Z,25.63
2018-07-30T21:18:46.302Z,25.51
2018-07-30T21:24:39.183Z,25.39
2018-07-30T21:27:32.219Z,25.51
2018-07-30T21:30:26.234Z,25.61
2018-07-30T21:33:23.075Z,25.59
2018-07-30T21:36:20.410Z,25.43
2018-07-30T21:39:19.209Z,25.13
2018-07-30T21:42:14.846Z,25.04
2018-07-30T21:45:11.789Z,25.22
2018-07-30T21:48:08.974Z,25.22
2018-07-30T21:51:00.337Z,24.94
2018-07-30T22:02:48.839Z,24.96
2018-07-30T22:08:48.988Z,24.73
2018-07-30T22:14:37.684Z,24.56
2018-07-30T22:23:27.269Z,25.04
2018-07-30T22:26:24.065Z,25.13
2018-07-30T22:35:00.264Z,25.02
2018-07-30T22:40:39.600Z,24.68
2018-07-30T22:49:24.926Z,23.98
2018-07-30T22:52:19.399Z,24.13
2018-07-30T22:58:12.036Z,24.05
2018-07-30T23:01:06.461Z,24.21
2018-07-30T23:18:29.541Z,23.90
2018-07-30T23:21:29.932Z,23.87
2018-07-30T23:24:24.276Z,23.95
2018-07-30T23:33:16.040Z,23.70
2018-07-30T23:36:07.075Z,23.91
2018-07-30T23:38:46.518Z,23.73
2018-07-30T23:41:35.383Z,23.64
2018-07-30T23:44:22.093Z,23.46
2018-07-30T23:50:00.202Z,23.15
2018-07-30T23:52:41.782Z,23.62
2018-07-30T23:55:32.921Z,23.64
2018-07-30T23:58:22.726Z,23.57
